createdAt,value
2022-11-08T00:01:32.306Z,11.83
2022-11-08T00:06:54.411Z,11.86
2022-11-08T00:12:15.100Z,12.00
2022-11-08T00:17:18.043Z,12.02
2022-11-08T00:22:20.128Z,11.87
2022-11-08T00:27:23.295Z,11.77
2022-11-08T00:32:26.518Z,11.83
2022-11-08T00:37:28.185Z,11.77
2022-11-08T00:42:29.906Z,11.77
2022-11-08T00:47:31.560Z,11.80
2022-11-08T00:52:33.241Z,11.68
2022-11-08T00:57:54.103Z,11.77
2022-11-08T01:03:15.004Z,11.75
2022-11-08T01:08:18.061Z,11.99
2022-11-08T01:13:20.561Z,12.09
2022-11-08T01:18:22.370Z,12.32
2022-11-08T01:23:24.051Z,12.24
2022-11-08T01:28:25.709Z,12.33
2022-11-08T01:33:27.466Z,12.18
2022-11-08T01:38:29.140Z,11.85
2022-11-08T01:43:30.751Z,11.57
2022-11-08T01:48:32.462Z,11.49
2022-11-08T01:53:34.607Z,11.49
2022-11-08T01:58:38.507Z,11.18
2022-11-08T02:03:41.614Z,11.11
2022-11-08T02:08:44.816Z,10.87
2022-11-08T02:13:46.559Z,10.45
2022-11-08T02:18:49.530Z,10.28
2022-11-08T02:24:06.903Z,10.08
2022-11-08T02:29:27.671Z,9.90
2022-11-08T02:34:38.433Z,9.82
2022-11-08T02:39:40.127Z,9.62
2022-11-08T02:44:41.835Z,10.16
2022-11-08T02:49:43.630Z,10.57
2022-11-08T02:54:45.404Z,10.83
2022-11-08T02:59:48.749Z,10.98
2022-11-08T03:04:50.395Z,11.16
2022-11-08T03:09:52.125Z,11.21
2022-11-08T03:14:53.805Z,11.36
2022-11-08T03:19:56.221Z,11.20
2022-11-08T03:24:57.887Z,11.34
2022-11-08T03:29:59.544Z,11.25
2022-11-08T03:35:01.207Z,11.23
2022-11-08T03:40:02.987Z,11.19
2022-11-08T03:45:04.884Z,11.05
2022-11-08T03:50:08.243Z,10.65
2022-11-08T03:55:10.963Z,10.60
2022-11-08T04:00:14.343Z,10.98
2022-11-08T04:05:16.593Z,11.33
2022-11-08T04:10:18.525Z,11.28
2022-11-08T04:15:22.832Z,10.84
2022-11-08T04:20:42.843Z,10.34
2022-11-08T04:25:45.376Z,9.75
2022-11-08T04:30:52.721Z,9.31
2022-11-08T04:35:54.436Z,9.08
2022-11-08T04:41:04.326Z,8.78
2022-11-08T04:46:09.232Z,8.68
2022-11-08T04:51:28.621Z,8.57
2022-11-08T04:56:31.356Z,8.32
2022-11-08T05:01:33.221Z,7.92
2022-11-08T05:06:35.002Z,8.00
2022-11-08T05:11:37.203Z,7.87
2022-11-08T05:16:38.896Z,7.70
2022-11-08T05:21:59.211Z,7.68
2022-11-08T05:27:00.882Z,7.52
2022-11-08T05:32:02.572Z,7.32
2022-11-08T05:37:04.343Z,7.42
2022-11-08T05:42:06.118Z,7.34
2022-11-08T05:47:08.134Z,7.02
2022-11-08T05:52:09.825Z,7.09
2022-11-08T05:57:12.488Z,7.05
2022-11-08T06:02:14.307Z,7.08
2022-11-08T06:07:16.184Z,6.91
2022-11-08T06:12:18.091Z,6.62
2022-11-08T06:17:19.750Z,6.74
2022-11-08T06:22:21.824Z,6.74
2022-11-08T06:27:23.805Z,6.90
2022-11-08T06:32:25.489Z,7.09
2022-11-08T06:37:27.195Z,7.07
2022-11-08T06:42:28.978Z,7.19
2022-11-08T06:47:30.636Z,7.08
2022-11-08T06:52:32.491Z,7.20
2022-11-08T06:57:34.312Z,7.15
2022-11-08T07:02:36.272Z,7.10
2022-11-08T07:07:38.454Z,7.09
2022-11-08T07:12:40.265Z,7.11
2022-11-08T07:17:42.091Z,7.37
2022-11-08T07:22:43.791Z,7.67
2022-11-08T07:27:45.482Z,7.61
2022-11-08T07:32:47.216Z,7.53
2022-11-08T07:37:49.011Z,7.77
2022-11-08T07:43:11.401Z,8.07
2022-11-08T07:48:13.986Z,8.27
2022-11-08T07:53:16.141Z,8.48
2022-11-08T07:58:18.027Z,9.07
2022-11-08T08:03:20.076Z,9.24
2022-11-08T08:08:22.648Z,10.36
2022-11-08T08:13:24.316Z,10.74
2022-11-08T08:18:26.169Z,11.62
2022-11-08T08:23:28.976Z,10.73
2022-11-08T08:28:30.713Z,10.54
2022-11-08T08:33:33.311Z,10.57
2022-11-08T08:38:38.688Z,11.16
2022-11-08T08:43:43.230Z,12.00
2022-11-08T08:48:44.887Z,11.97
2022-11-08T08:53:46.547Z,12.65
2022-11-08T09:04:12.790Z,14.78
2022-11-08T09:09:14.460Z,16.97
2022-11-08T09:14:16.133Z,17.13
2022-11-08T09:19:17.838Z,17.95
2022-11-08T09:24:20.138Z,17.85
2022-11-08T09:29:21.867Z,17.82
2022-11-08T09:34:23.656Z,18.01
2022-11-08T09:39:25.456Z,18.68
2022-11-08T09:44:39.086Z,20.26
2022-11-08T09:49:45.881Z,20.88
2022-11-08T09:54:48.683Z,20.41
2022-11-08T09:59:56.549Z,20.80
2022-11-08T10:05:09.474Z,18.91
2022-11-08T10:10:17.035Z,20.54
2022-11-08T10:15:30.254Z,19.87
2022-11-08T10:21:00.619Z,19.77
2022-11-08T10:26:24.151Z,20.55
2022-11-08T10:31:33.146Z,20.27
2022-11-08T10:36:38.852Z,21.25
2022-11-08T10:41:44.725Z,22.08
2022-11-08T10:46:57.532Z,22.10
2022-11-08T10:52:01.379Z,19.74
2022-11-08T10:57:03.147Z,20.18
2022-11-08T11:02:18.918Z,19.84
2022-11-08T11:07:33.220Z,19.94
2022-11-08T11:12:34.879Z,18.80
2022-11-08T11:17:39.086Z,18.65
2022-11-08T11:22:46.665Z,19.64
2022-11-08T11:27:58.440Z,20.97
2022-11-08T11:33:09.406Z,20.02
2022-11-08T11:38:23.702Z,17.83
2022-11-08T11:43:35.948Z,18.23
2022-11-08T11:48:45.844Z,18.91
2022-11-08T11:53:48.967Z,19.54
2022-11-08T11:59:12.655Z,19.85
2022-11-08T12:04:24.359Z,19.46
2022-11-08T12:09:57.730Z,19.20
2022-11-08T12:15:17.307Z,19.07
2022-11-08T12:20:38.668Z,19.07
2022-11-08T12:26:15.445Z,18.68
2022-11-08T12:31:38.883Z,19.15
2022-11-08T12:37:11.735Z,18.97
2022-11-08T12:42:50.789Z,19.02
2022-11-08T12:48:12.205Z,18.00
2022-11-08T12:53:49.048Z,18.08
2022-11-08T12:58:53.542Z,18.64
2022-11-08T13:04:05.796Z,18.78
2022-11-08T13:09:23.399Z,18.30
2022-11-08T13:14:26.126Z,18.71
2022-11-08T13:19:29.751Z,17.36
2022-11-08T13:24:49.814Z,17.63
2022-11-08T13:29:53.319Z,17.77
2022-11-08T13:35:36.382Z,18.17
2022-11-08T13:40:59.664Z,18.09
2022-11-08T13:46:27.001Z,18.09
2022-11-08T13:51:31.144Z,17.29
2022-11-08T13:56:42.300Z,16.35
2022-11-08T14:01:46.784Z,16.00
2022-11-08T14:07:03.469Z,15.89
2022-11-08T14:12:22.853Z,16.50
2022-11-08T14:17:58.481Z,17.35
2022-11-08T14:23:14.728Z,17.59
2022-11-08T14:28:27.776Z,17.01
2022-11-08T14:33:31.657Z,17.46
2022-11-08T14:38:37.920Z,16.50
2022-11-08T14:43:45.363Z,15.89
2022-11-08T14:48:54.777Z,15.58
2022-11-08T14:53:56.760Z,15.25
2022-11-08T14:58:58.479Z,15.21
2022-11-08T15:04:19.156Z,14.99
2022-11-08T15:09:25.961Z,14.63
2022-11-08T15:14:30.933Z,14.42
2022-11-08T15:19:46.483Z,13.89
2022-11-08T15:24:48.586Z,14.22
2022-11-08T15:29:53.923Z,14.13
2022-11-08T15:34:56.898Z,13.94
2022-11-08T15:40:02.919Z,14.03
2022-11-08T15:45:13.700Z,13.94
2022-11-08T15:50:22.699Z,13.79
2022-11-08T15:55:29.645Z,13.89
2022-11-08T16:00:34.983Z,13.63
2022-11-08T16:05:36.817Z,13.54
2022-11-08T16:10:42.510Z,13.05
2022-11-08T16:15:45.752Z,12.73
2022-11-08T16:20:47.625Z,12.44
2022-11-08T16:25:51.306Z,12.44
2022-11-08T16:30:53.746Z,12.27
2022-11-08T16:35:58.608Z,11.90
2022-11-08T16:41:00.279Z,11.82
2022-11-08T16:46:07.128Z,11.63
2022-11-08T16:51:16.751Z,11.37
2022-11-08T16:56:18.473Z,11.14
2022-11-08T17:01:33.307Z,11.17
2022-11-08T17:06:35.098Z,11.17
2022-11-08T17:11:38.634Z,11.01
2022-11-08T17:16:40.332Z,11.06
2022-11-08T17:21:45.040Z,10.94
2022-11-08T17:26:47.605Z,10.83
2022-11-08T17:31:49.833Z,10.63
2022-11-08T17:36:52.904Z,10.44
2022-11-08T17:41:54.625Z,10.28
2022-11-08T17:46:56.447Z,10.48
2022-11-08T17:51:58.262Z,10.59
2022-11-08T17:57:00.072Z,10.61
2022-11-08T18:02:02.020Z,11.24
2022-11-08T18:07:04.157Z,11.67
2022-11-08T18:12:06.216Z,11.40
2022-11-08T18:17:08.277Z,11.54
2022-11-08T18:22:10.781Z,11.99
2022-11-08T18:27:12.569Z,12.28
2022-11-08T18:32:14.330Z,12.45
2022-11-08T18:37:16.112Z,12.43
2022-11-08T18:42:17.796Z,12.71
2022-11-08T18:47:19.912Z,12.20
2022-11-08T18:52:21.721Z,12.00
2022-11-08T18:57:23.415Z,11.45
2022-11-08T19:02:25.216Z,11.45
2022-11-08T19:07:27.653Z,11.23
2022-11-08T19:12:29.914Z,11.00
2022-11-08T19:17:32.967Z,11.14
2022-11-08T19:22:34.659Z,10.99
2022-11-08T19:27:36.379Z,10.95
2022-11-08T19:32:38.124Z,10.96
2022-11-08T19:37:39.986Z,10.69
2022-11-08T19:42:41.707Z,10.70
2022-11-08T19:47:43.452Z,10.56
2022-11-08T19:52:45.190Z,10.48
2022-11-08T19:57:47.519Z,10.62
2022-11-08T20:02:50.940Z,10.59
2022-11-08T20:07:52.600Z,10.46
2022-11-08T20:12:54.320Z,10.40
2022-11-08T20:17:55.988Z,10.33
2022-11-08T20:22:57.753Z,10.48
2022-11-08T20:27:59.520Z,10.23
2022-11-08T20:33:01.255Z,10.35
2022-11-08T20:38:02.916Z,9.83
2022-11-08T20:43:04.616Z,10.03
2022-11-08T20:48:06.771Z,9.97
2022-11-08T20:53:08.617Z,9.51
2022-11-08T20:58:10.325Z,9.55
2022-11-08T21:03:18.701Z,9.61
2022-11-08T21:08:58.545Z,9.46
2022-11-08T21:13:44.173Z,9.26
2022-11-08T21:18:45.888Z,9.24
2022-11-08T21:23:48.269Z,9.18
2022-11-08T21:28:50.003Z,9.09
2022-11-08T21:33:52.421Z,9.22
2022-11-08T21:38:54.269Z,9.12
2022-11-08T21:43:55.918Z,9.20
2022-11-08T21:49:00.191Z,9.16
2022-11-08T21:54:01.848Z,9.25
2022-11-08T21:59:03.863Z,9.29
2022-11-08T22:04:05.523Z,9.17
2022-11-08T22:09:07.175Z,9.09
2022-11-08T22:14:08.852Z,9.17
2022-11-08T22:19:10.762Z,9.07
2022-11-08T22:24:15.021Z,9.25
2022-11-08T22:29:17.309Z,9.08
2022-11-08T22:34:19.042Z,9.18
2022-11-08T22:39:22.827Z,9.01
2022-11-08T22:44:24.678Z,9.02
2022-11-08T22:49:26.340Z,8.94
2022-11-08T22:54:28.049Z,8.93
2022-11-08T22:59:29.749Z,9.04
2022-11-08T23:04:31.443Z,9.11
2022-11-08T23:09:33.205Z,9.18
2022-11-08T23:14:53.579Z,9.11
2022-11-08T23:20:13.687Z,9.22
2022-11-08T23:25:15.460Z,9.29
2022-11-08T23:30:36.581Z,9.48
2022-11-08T23:35:38.317Z,9.37
2022-11-08T23:40:58.595Z,9.27
2022-11-08T23:46:08.592Z,9.24
2022-11-08T23:51:10.326Z,9.23
2022-11-08T23:56:20.168Z,9.19
